createdAt,value
2017-02-19T00:00:39.409Z,99.99
2017-02-19T00:01:52.573Z,99.99
2017-02-19T00:03:05.701Z,99.99
2017-02-19T00:04:18.839Z,99.99
2017-02-19T00:05:31.912Z,99.99
2017-02-19T00:06:45.029Z,99.99
2017-02-19T00:07:58.109Z,99.99
2017-02-19T00:09:10.805Z,99.99
2017-02-19T00:10:23.501Z,99.99
2017-02-19T00:11:36.658Z,99.99
2017-02-19T00:12:49.329Z,99.99
2017-02-19T00:14:02.632Z,99.99
2017-02-19T00:15:15.321Z,99.99
2017-02-19T00:16:28.425Z,99.99
2017-02-19T00:17:41.526Z,99.99
2017-02-19T00:18:54.584Z,99.99
2017-02-19T00:20:07.669Z,99.99
2017-02-19T00:21:20.408Z,99.99
2017-02-19T00:22:33.127Z,99.99
2017-02-19T00:23:45.842Z,99.99
2017-02-19T00:24:58.921Z,99.99
2017-02-19T00:26:12.015Z,99.99
2017-02-19T00:27:24.711Z,99.99
2017-02-19T00:28:37.438Z,99.99
2017-02-19T00:29:50.528Z,99.99
2017-02-19T00:31:03.655Z,99.99
2017-02-19T00:32:16.745Z,99.99
2017-02-19T00:33:29.817Z,99.99
2017-02-19T00:34:42.517Z,99.99
2017-02-19T00:35:55.224Z,99.99
2017-02-19T00:37:08.383Z,99.99
2017-02-19T00:38:21.081Z,99.99
2017-02-19T00:39:33.827Z,99.99
2017-02-19T00:40:46.916Z,99.99
2017-02-19T00:42:00.029Z,99.99
2017-02-19T00:43:13.119Z,99.99
2017-02-19T00:44:26.196Z,99.99
2017-02-19T00:45:39.299Z,99.99
2017-02-19T00:46:52.352Z,99.99
2017-02-19T00:48:05.471Z,99.99
2017-02-19T00:49:18.171Z,99.99
2017-02-19T00:50:31.325Z,99.99
2017-02-19T00:51:44.053Z,99.99
2017-02-19T00:52:57.132Z,99.99
2017-02-19T00:54:10.245Z,99.99
2017-02-19T00:55:23.348Z,99.99
2017-02-19T00:56:36.430Z,99.99
2017-02-19T00:57:49.526Z,99.99
2017-02-19T00:59:02.580Z,99.99
2017-02-19T01:00:15.684Z,99.99
2017-02-19T01:01:28.779Z,99.99
2017-02-19T01:02:41.848Z,99.99
2017-02-19T01:03:54.562Z,99.99
2017-02-19T01:05:07.664Z,99.99
2017-02-19T01:06:20.786Z,99.99
2017-02-19T01:07:33.474Z,99.99
2017-02-19T01:08:46.546Z,99.99
2017-02-19T01:09:59.648Z,99.99
2017-02-19T01:11:12.744Z,99.99
2017-02-19T01:12:25.441Z,99.99
2017-02-19T01:13:38.786Z,99.99
2017-02-19T01:14:51.885Z,99.99
2017-02-19T01:16:05.001Z,99.99
2017-02-19T01:17:17.323Z,99.99
2017-02-19T01:18:30.430Z,99.99
2017-02-19T01:19:43.569Z,99.99
2017-02-19T01:20:56.696Z,99.99
2017-02-19T01:22:09.782Z,99.99
2017-02-19T01:23:22.530Z,99.99
2017-02-19T01:24:35.622Z,99.99
2017-02-19T01:25:48.743Z,99.99
2017-02-19T01:27:01.809Z,99.99
2017-02-19T01:28:14.904Z,99.99
2017-02-19T01:29:27.975Z,99.99
2017-02-19T01:30:41.070Z,99.99
2017-02-19T01:31:54.169Z,99.99
2017-02-19T01:33:07.263Z,99.99
2017-02-19T01:34:20.339Z,99.99
2017-02-19T01:35:33.066Z,99.99
2017-02-19T01:36:45.376Z,99.99
2017-02-19T01:37:58.429Z,99.99
2017-02-19T01:39:11.498Z,99.99
2017-02-19T01:40:24.531Z,99.99
2017-02-19T01:41:37.215Z,99.99
2017-02-19T01:42:50.342Z,99.99
2017-02-19T01:44:03.425Z,99.99
2017-02-19T01:45:15.728Z,99.99
2017-02-19T01:46:28.724Z,99.99
2017-02-19T01:47:41.805Z,99.99
2017-02-19T01:48:54.916Z,99.99
2017-02-19T01:50:08.011Z,99.99
2017-02-19T01:51:20.768Z,99.99
2017-02-19T01:52:33.497Z,99.99
2017-02-19T01:53:46.610Z,99.99
2017-02-19T01:54:59.739Z,99.99
2017-02-19T01:56:12.875Z,99.99
2017-02-19T01:57:25.630Z,99.99
2017-02-19T01:58:38.763Z,99.99
2017-02-19T01:59:51.803Z,99.99
2017-02-19T02:01:04.868Z,99.99
2017-02-19T02:02:17.545Z,99.99
2017-02-19T02:03:30.260Z,99.99
2017-02-19T02:04:43.348Z,99.99
2017-02-19T02:05:56.401Z,99.99
2017-02-19T02:07:09.497Z,99.99
2017-02-19T02:08:22.636Z,99.99
2017-02-19T02:09:35.664Z,99.99
2017-02-19T02:10:48.753Z,99.99
2017-02-19T02:12:01.830Z,99.99
2017-02-19T02:13:14.525Z,99.99
2017-02-19T02:14:27.629Z,99.99
2017-02-19T02:15:40.779Z,99.99
2017-02-19T02:16:53.495Z,99.99
2017-02-19T02:18:06.541Z,99.99
2017-02-19T02:19:19.231Z,99.99
2017-02-19T02:20:32.326Z,99.99
2017-02-19T02:21:45.483Z,99.99
2017-02-19T02:22:58.618Z,99.99
2017-02-19T02:24:11.307Z,99.99
2017-02-19T02:25:24.242Z,99.99
2017-02-19T02:26:36.955Z,99.99
2017-02-19T02:27:49.652Z,99.99
2017-02-19T02:29:02.748Z,99.99
2017-02-19T02:30:15.457Z,99.99
2017-02-19T02:31:28.146Z,99.99
2017-02-19T02:32:41.286Z,99.99
2017-02-19T02:33:54.388Z,99.99
2017-02-19T02:35:07.484Z,99.99
2017-02-19T02:36:20.604Z,99.99
2017-02-19T02:37:33.761Z,99.99
2017-02-19T02:38:46.451Z,99.99
2017-02-19T02:39:59.536Z,99.99
2017-02-19T02:41:12.242Z,99.99
2017-02-19T02:42:24.983Z,99.99
2017-02-19T02:43:37.699Z,99.99
2017-02-19T02:44:50.869Z,99.99
2017-02-19T02:46:03.582Z,99.99
2017-02-19T02:47:16.285Z,99.99
2017-02-19T02:48:28.985Z,99.99
2017-02-19T02:49:42.080Z,99.99
2017-02-19T02:50:55.155Z,99.99
2017-02-19T02:52:08.132Z,99.99
2017-02-19T02:53:21.247Z,99.99
2017-02-19T02:54:34.337Z,99.99
2017-02-19T02:55:47.463Z,99.99
2017-02-19T02:57:00.570Z,99.99
2017-02-19T02:58:13.255Z,99.99
2017-02-19T02:59:26.351Z,99.99
2017-02-19T03:00:39.416Z,99.99
2017-02-19T03:01:52.512Z,99.99
2017-02-19T03:03:05.639Z,99.99
2017-02-19T03:04:18.721Z,99.99
2017-02-19T03:05:31.835Z,99.99
2017-02-19T03:06:44.912Z,99.99
2017-02-19T03:07:58.001Z,99.99
2017-02-19T03:09:10.710Z,99.99
2017-02-19T03:10:23.433Z,99.99
2017-02-19T03:11:36.508Z,99.99
2017-02-19T03:12:49.606Z,99.99
2017-02-19T03:14:02.738Z,99.99
2017-02-19T03:15:15.047Z,99.99
2017-02-19T03:16:28.155Z,99.99
2017-02-19T03:17:41.260Z,99.99
2017-02-19T03:18:54.404Z,99.99
2017-02-19T03:20:07.504Z,99.99
2017-02-19T03:21:19.845Z,99.99
2017-02-19T03:22:32.590Z,99.99
2017-02-19T03:23:45.656Z,99.99
2017-02-19T03:24:59.017Z,99.99
2017-02-19T03:26:12.162Z,99.99
2017-02-19T03:27:25.300Z,99.99
2017-02-19T03:28:38.395Z,99.99
2017-02-19T03:29:51.491Z,99.99
2017-02-19T03:31:04.569Z,99.99
2017-02-19T03:32:17.640Z,99.99
2017-02-19T03:33:30.728Z,99.99
2017-02-19T03:34:43.782Z,99.99
2017-02-19T03:35:56.852Z,99.99
2017-02-19T03:37:09.922Z,99.99
2017-02-19T03:38:22.655Z,99.99
2017-02-19T03:39:35.759Z,99.99
2017-02-19T03:40:48.879Z,99.99
2017-02-19T03:42:01.976Z,99.99
2017-02-19T03:43:14.647Z,99.99
2017-02-19T03:44:27.749Z,99.99
2017-02-19T03:45:40.838Z,99.99
2017-02-19T03:46:53.952Z,99.99
2017-02-19T03:48:06.627Z,99.99
2017-02-19T03:49:19.325Z,99.99
2017-02-19T03:50:32.373Z,99.99
2017-02-19T03:51:45.449Z,99.99
2017-02-19T03:52:58.555Z,99.99
2017-02-19T03:54:11.635Z,99.99
2017-02-19T03:55:24.762Z,99.99
2017-02-19T03:56:37.832Z,99.99
2017-02-19T03:57:51.178Z,99.99
2017-02-19T03:59:04.237Z,99.99
2017-02-19T04:00:16.532Z,99.99
2017-02-19T04:01:29.266Z,99.99
2017-02-19T04:02:42.342Z,99.99
2017-02-19T04:03:55.444Z,99.99
2017-02-19T04:05:08.519Z,99.99
2017-02-19T04:06:21.600Z,99.99
2017-02-19T04:07:34.706Z,99.99
2017-02-19T04:08:47.828Z,99.99
2017-02-19T04:10:00.924Z,99.99
2017-02-19T04:11:13.218Z,99.99
2017-02-19T04:12:25.891Z,99.99
2017-02-19T04:13:38.961Z,99.99
2017-02-19T04:14:52.071Z,99.99
2017-02-19T04:16:05.161Z,99.99
2017-02-19T04:17:17.856Z,99.99
2017-02-19T04:18:30.958Z,99.99
2017-02-19T04:19:44.073Z,99.99
2017-02-19T04:20:57.130Z,99.99
2017-02-19T04:22:10.215Z,99.99
2017-02-19T04:23:23.309Z,99.99
2017-02-19T04:24:36.438Z,99.99
2017-02-19T04:25:49.551Z,99.99
2017-02-19T04:27:02.647Z,99.99
2017-02-19T04:28:15.743Z,99.99
2017-02-19T04:29:28.882Z,99.99
2017-02-19T04:30:42.259Z,99.99
2017-02-19T04:31:54.963Z,99.99
2017-02-19T04:33:07.695Z,99.99
2017-02-19T04:34:20.399Z,99.99
2017-02-19T04:35:33.495Z,99.99
2017-02-19T04:36:46.600Z,99.99
2017-02-19T04:37:59.718Z,99.99
2017-02-19T04:39:12.799Z,99.99
2017-02-19T04:40:25.845Z,99.99
2017-02-19T04:41:38.981Z,99.99
2017-02-19T04:42:52.063Z,99.99
2017-02-19T04:44:05.121Z,99.99
2017-02-19T04:45:18.218Z,99.99
2017-02-19T04:46:31.338Z,99.99
2017-02-19T04:47:44.106Z,99.99
2017-02-19T04:48:57.155Z,99.99
2017-02-19T04:50:09.880Z,99.99
2017-02-19T04:51:22.966Z,99.99
2017-02-19T04:52:36.044Z,99.99
2017-02-19T04:53:49.132Z,99.99
2017-02-19T04:55:02.229Z,99.99
2017-02-19T04:56:14.917Z,99.99
2017-02-19T04:57:27.621Z,99.99
2017-02-19T04:58:40.691Z,99.99
2017-02-19T04:59:53.787Z,99.99
2017-02-19T05:01:06.492Z,99.99
2017-02-19T05:02:19.153Z,99.99
2017-02-19T05:03:32.224Z,99.99
2017-02-19T05:04:45.296Z,99.99
2017-02-19T05:05:58.005Z,99.99
2017-02-19T05:07:10.737Z,99.99
2017-02-19T05:08:23.859Z,99.99
2017-02-19T05:09:36.954Z,99.99
2017-02-19T05:10:50.050Z,99.99
2017-02-19T05:12:03.128Z,99.99
2017-02-19T05:13:16.233Z,99.99
2017-02-19T05:14:29.145Z,99.99
2017-02-19T05:15:42.234Z,99.99
2017-02-19T05:16:55.279Z,99.99
2017-02-19T05:18:08.355Z,99.99
2017-02-19T05:19:20.328Z,99.99
2017-02-19T05:20:33.099Z,99.99
2017-02-19T05:21:46.236Z,99.99
2017-02-19T05:22:59.307Z,99.99
2017-02-19T05:24:12.379Z,99.99
2017-02-19T05:25:25.118Z,99.99
2017-02-19T05:26:38.172Z,99.99
2017-02-19T05:27:51.261Z,99.99
2017-02-19T05:29:04.344Z,99.99
2017-02-19T05:30:17.127Z,99.99
2017-02-19T05:31:30.230Z,99.99
2017-02-19T05:32:43.302Z,99.99
2017-02-19T05:33:56.420Z,99.99
2017-02-19T05:35:09.517Z,99.99
2017-02-19T05:36:22.616Z,99.99
2017-02-19T05:37:35.296Z,99.99
2017-02-19T05:38:48.412Z,99.99
2017-02-19T05:40:01.533Z,99.99
2017-02-19T05:41:14.647Z,99.99
2017-02-19T05:42:27.743Z,99.99
2017-02-19T05:43:40.864Z,99.99
2017-02-19T05:44:53.983Z,99.99
2017-02-19T05:46:07.079Z,99.99
2017-02-19T05:47:20.194Z,99.99
2017-02-19T05:48:33.253Z,99.99
2017-02-19T05:49:45.992Z,99.99
2017-02-19T05:50:59.044Z,99.99
2017-02-19T05:52:12.116Z,99.99
2017-02-19T05:53:25.212Z,99.99
2017-02-19T05:54:38.309Z,99.99
2017-02-19T05:55:51.390Z,99.99
2017-02-19T05:57:04.092Z,99.99
2017-02-19T05:58:17.244Z,99.99
2017-02-19T05:59:29.984Z,99.99
2017-02-19T06:00:43.061Z,99.99
2017-02-19T06:01:55.819Z,99.99
2017-02-19T06:03:08.904Z,99.99
2017-02-19T06:04:21.593Z,99.99
2017-02-19T06:05:34.694Z,99.99
2017-02-19T06:06:47.785Z,99.99
2017-02-19T06:08:00.488Z,99.99
2017-02-19T06:09:13.177Z,99.99
2017-02-19T06:10:26.248Z,99.99
2017-02-19T06:11:38.926Z,99.99
2017-02-19T06:12:52.039Z,99.99
2017-02-19T06:14:04.772Z,99.99
2017-02-19T06:15:17.500Z,99.99
2017-02-19T06:16:30.606Z,99.99
2017-02-19T06:17:43.703Z,99.99
2017-02-19T06:18:56.776Z,99.99
2017-02-19T06:20:09.897Z,99.99
2017-02-19T06:21:22.968Z,99.99
2017-02-19T06:22:36.082Z,99.99
2017-02-19T06:23:49.210Z,99.99
2017-02-19T06:25:02.323Z,99.99
2017-02-19T06:26:15.076Z,99.99
2017-02-19T06:27:28.189Z,99.99
2017-02-19T06:28:40.886Z,99.99
2017-02-19T06:29:53.558Z,99.99
2017-02-19T06:31:06.629Z,99.99
2017-02-19T06:32:18.954Z,99.99
2017-02-19T06:33:31.621Z,99.99
2017-02-19T06:34:44.690Z,99.99
2017-02-19T06:35:57.385Z,99.99
2017-02-19T06:37:10.118Z,99.99
2017-02-19T06:38:23.204Z,99.99
2017-02-19T06:39:35.906Z,99.99
2017-02-19T06:40:48.957Z,99.99
2017-02-19T06:42:02.093Z,99.99
2017-02-19T06:43:14.411Z,99.99
2017-02-19T06:44:27.500Z,99.99
2017-02-19T06:45:40.596Z,99.99
2017-02-19T06:46:53.699Z,99.99
2017-02-19T06:48:06.795Z,99.99
2017-02-19T06:49:19.877Z,99.99
2017-02-19T06:50:32.562Z,99.99
2017-02-19T06:51:45.609Z,99.99
2017-02-19T06:52:58.752Z,99.99
2017-02-19T06:54:11.816Z,99.99
2017-02-19T06:55:24.521Z,99.99
2017-02-19T06:56:37.591Z,99.99
2017-02-19T06:57:50.670Z,99.99
2017-02-19T06:59:03.789Z,99.99
2017-02-19T07:00:16.898Z,99.99
2017-02-19T07:01:29.974Z,99.99
2017-02-19T07:02:43.020Z,99.99
2017-02-19T07:03:56.116Z,99.99
2017-02-19T07:05:09.255Z,99.99
2017-02-19T07:06:21.934Z,99.99
2017-02-19T07:07:35.030Z,99.99
2017-02-19T07:08:48.149Z,99.99
2017-02-19T07:10:01.283Z,99.99
2017-02-19T07:11:13.635Z,99.99
2017-02-19T07:12:26.387Z,99.99
2017-02-19T07:13:39.333Z,99.99
2017-02-19T07:14:52.453Z,99.99
2017-02-19T07:16:05.568Z,99.99
2017-02-19T07:17:18.627Z,99.99
2017-02-19T07:18:31.699Z,99.99
2017-02-19T07:19:44.798Z,99.99
2017-02-19T07:20:57.844Z,99.99
2017-02-19T07:22:10.555Z,99.99
2017-02-19T07:23:23.604Z,99.99
2017-02-19T07:24:36.325Z,99.99
2017-02-19T07:25:49.021Z,99.99
2017-02-19T07:27:02.087Z,99.99
2017-02-19T07:28:14.834Z,99.99
2017-02-19T07:29:27.986Z,99.99
2017-02-19T07:30:41.058Z,99.99
2017-02-19T07:31:54.197Z,99.99
2017-02-19T07:33:07.317Z,99.99
2017-02-19T07:34:20.019Z,99.99
2017-02-19T07:35:33.058Z,99.99
2017-02-19T07:36:46.187Z,99.99
2017-02-19T07:37:59.269Z,99.99
2017-02-19T07:39:12.378Z,99.99
2017-02-19T07:40:25.474Z,99.99
2017-02-19T07:41:38.546Z,99.99
2017-02-19T07:42:51.629Z,99.99
2017-02-19T07:44:04.737Z,99.99
2017-02-19T07:45:17.825Z,99.99
2017-02-19T07:46:30.971Z,99.99
2017-02-19T07:47:44.061Z,99.99
2017-02-19T07:48:57.213Z,99.99
2017-02-19T07:50:10.316Z,99.99
2017-02-19T07:51:23.030Z,99.99
2017-02-19T07:52:36.108Z,99.99
2017-02-19T07:53:49.196Z,99.99
2017-02-19T07:55:02.285Z,99.99
2017-02-19T07:56:14.988Z,99.99
2017-02-19T07:57:27.687Z,99.99
2017-02-19T07:58:40.755Z,99.99
2017-02-19T07:59:53.852Z,99.99
2017-02-19T08:01:07.206Z,99.99
2017-02-19T08:02:20.376Z,99.99
2017-02-19T08:03:33.040Z,99.99
2017-02-19T08:04:46.161Z,99.99
2017-02-19T08:05:59.282Z,99.99
2017-02-19T08:07:12.401Z,99.99
2017-02-19T08:08:25.454Z,99.99
2017-02-19T08:09:38.221Z,99.99
2017-02-19T08:10:51.348Z,99.99
2017-02-19T08:12:04.436Z,99.99
2017-02-19T08:13:17.488Z,99.99
2017-02-19T08:14:30.600Z,99.99
2017-02-19T08:15:43.307Z,99.99
2017-02-19T08:16:56.020Z,99.99
2017-02-19T08:18:09.090Z,99.99
2017-02-19T08:19:22.242Z,99.99
2017-02-19T08:20:34.924Z,99.99
2017-02-19T08:21:47.978Z,99.99
2017-02-19T08:23:01.054Z,99.99
2017-02-19T08:24:14.100Z,99.99
2017-02-19T08:25:26.847Z,99.99
2017-02-19T08:26:39.943Z,99.99
2017-02-19T08:27:53.083Z,99.99
2017-02-19T08:29:06.135Z,99.99
2017-02-19T08:30:19.269Z,99.99
2017-02-19T08:31:31.972Z,99.99
2017-02-19T08:32:45.091Z,99.99
2017-02-19T08:33:58.153Z,99.99
2017-02-19T08:35:11.232Z,99.99
2017-02-19T08:36:24.330Z,99.99
2017-02-19T08:37:37.030Z,99.99
2017-02-19T08:38:50.132Z,99.99
2017-02-19T08:40:03.190Z,99.99
2017-02-19T08:41:14.761Z,99.99
2017-02-19T08:42:27.508Z,99.99
2017-02-19T08:43:40.597Z,99.99
2017-02-19T08:44:53.685Z,99.99
2017-02-19T08:46:06.377Z,99.99
2017-02-19T08:47:19.460Z,99.99
2017-02-19T08:48:32.594Z,99.99
2017-02-19T08:49:45.690Z,99.99
2017-02-19T08:50:58.760Z,99.99
2017-02-19T08:52:11.831Z,99.99
2017-02-19T08:53:24.908Z,99.99
2017-02-19T08:54:37.994Z,99.99
2017-02-19T08:55:51.112Z,99.99
2017-02-19T08:57:04.187Z,99.99
2017-02-19T08:58:17.285Z,99.99
2017-02-19T08:59:30.351Z,99.99
2017-02-19T09:00:43.478Z,99.99
2017-02-19T09:01:56.592Z,99.99
2017-02-19T09:03:09.745Z,99.99
2017-02-19T09:04:22.826Z,99.99
2017-02-19T09:05:35.904Z,99.99
2017-02-19T09:06:48.974Z,99.99
2017-02-19T09:08:02.103Z,99.99
2017-02-19T09:09:15.199Z,99.99
2017-02-19T09:10:27.971Z,99.99
2017-02-19T09:11:41.059Z,99.99
2017-02-19T09:12:54.155Z,99.99
2017-02-19T09:14:07.238Z,99.99
2017-02-19T09:15:20.277Z,99.99
2017-02-19T09:16:33.370Z,99.99
2017-02-19T09:17:46.455Z,99.99
2017-02-19T09:18:59.515Z,99.99
2017-02-19T09:20:12.603Z,99.99
2017-02-19T09:21:25.695Z,99.99
2017-02-19T09:22:38.772Z,99.99
2017-02-19T09:23:51.798Z,99.99
2017-02-19T09:25:04.914Z,99.99
2017-02-19T09:26:18.040Z,99.99
2017-02-19T09:27:31.148Z,99.99
2017-02-19T09:28:44.232Z,99.99
2017-02-19T09:29:57.304Z,99.99
2017-02-19T09:31:10.018Z,99.99
2017-02-19T09:32:23.120Z,99.99
2017-02-19T09:33:35.891Z,99.99
2017-02-19T09:34:48.957Z,99.99
2017-02-19T09:36:02.008Z,99.99
2017-02-19T09:37:15.097Z,99.99
2017-02-19T09:38:28.211Z,99.99
2017-02-19T09:39:40.864Z,99.99
2017-02-19T09:40:53.970Z,99.99
2017-02-19T09:42:07.048Z,99.99
2017-02-19T09:43:19.334Z,99.99
2017-02-19T09:44:32.401Z,99.99
2017-02-19T09:45:45.467Z,99.99
2017-02-19T09:46:58.544Z,99.99
2017-02-19T09:48:10.909Z,99.99
2017-02-19T09:49:23.961Z,99.99
2017-02-19T09:50:36.277Z,99.99
2017-02-19T09:51:49.404Z,99.99
2017-02-19T09:53:02.120Z,99.99
2017-02-19T09:54:14.790Z,99.99
2017-02-19T09:55:27.870Z,99.99
2017-02-19T09:56:40.999Z,99.99
2017-02-19T09:57:53.696Z,99.99
2017-02-19T09:59:06.765Z,99.99
2017-02-19T10:00:19.888Z,99.99
2017-02-19T10:01:32.977Z,99.99
2017-02-19T10:02:46.086Z,99.99
2017-02-19T10:03:59.181Z,99.99
2017-02-19T10:05:11.870Z,99.99
2017-02-19T10:06:24.930Z,99.99
2017-02-19T10:07:38.021Z,99.99
2017-02-19T10:08:51.139Z,99.99
2017-02-19T10:10:04.192Z,99.99
2017-02-19T10:11:15.720Z,99.99
2017-02-19T10:12:28.801Z,99.99
2017-02-19T10:13:41.923Z,99.99
2017-02-19T10:14:54.651Z,99.99
2017-02-19T10:16:07.747Z,99.99
2017-02-19T10:17:20.837Z,99.99
2017-02-19T10:18:33.941Z,99.99
2017-02-19T10:19:46.653Z,99.99
2017-02-19T10:20:59.428Z,99.99
2017-02-19T10:22:12.520Z,99.99
2017-02-19T10:23:25.584Z,99.99
2017-02-19T10:24:38.280Z,99.99
2017-02-19T10:25:51.364Z,99.99
2017-02-19T10:27:04.085Z,99.99
2017-02-19T10:28:16.801Z,99.99
2017-02-19T10:29:29.894Z,99.99
2017-02-19T10:30:42.994Z,99.99
2017-02-19T10:31:56.120Z,99.99
2017-02-19T10:33:09.251Z,99.99
2017-02-19T10:34:22.336Z,99.99
2017-02-19T10:35:35.435Z,99.99
2017-02-19T10:36:48.604Z,99.99
2017-02-19T10:38:01.716Z,99.4
2017-02-19T10:39:14.444Z,99.21
2017-02-19T10:40:27.515Z,99.3
2017-02-19T10:41:40.621Z,99.97
2017-02-19T10:42:53.750Z,99.77
2017-02-19T10:44:06.868Z,99.58
2017-02-19T10:45:19.609Z,99.4
2017-02-19T10:46:32.761Z,99.02
2017-02-19T10:47:45.933Z,98.45
2017-02-19T10:48:59.067Z,98.26
2017-02-19T10:50:12.199Z,98.26
2017-02-19T10:51:24.952Z,98.07
2017-02-19T10:52:38.067Z,99.02
2017-02-19T10:53:51.137Z,99.21
2017-02-19T10:55:04.239Z,97.88
2017-02-19T10:56:17.379Z,98.07
2017-02-19T10:57:30.451Z,98.26
2017-02-19T10:58:43.596Z,98.59
2017-02-19T10:59:56.617Z,98.07
2017-02-19T11:01:09.331Z,97.36
2017-02-19T11:02:22.465Z,97.41
2017-02-19T11:03:35.578Z,97.64
2017-02-19T11:04:48.724Z,97.17
2017-02-19T11:06:01.803Z,97.64
2017-02-19T11:07:14.917Z,96.6
2017-02-19T11:08:28.014Z,96.6
2017-02-19T11:09:41.116Z,96.79
2017-02-19T11:10:54.205Z,96.22
2017-02-19T11:12:07.318Z,96.31
2017-02-19T11:13:20.014Z,97.36
2017-02-19T11:14:33.120Z,97.36
2017-02-19T11:15:46.205Z,96.69
2017-02-19T11:16:59.351Z,97.17
2017-02-19T11:18:12.455Z,96.22
2017-02-19T11:19:25.182Z,96.22
2017-02-19T11:20:38.255Z,95.27
2017-02-19T11:21:51.624Z,96.41
2017-02-19T11:23:04.770Z,96.98
2017-02-19T11:24:17.858Z,96.69
2017-02-19T11:25:30.573Z,96.6
2017-02-19T11:26:43.651Z,95.36
2017-02-19T11:27:56.722Z,95.94
2017-02-19T11:29:09.822Z,95.94
2017-02-19T11:30:22.946Z,96.26
2017-02-19T11:31:35.315Z,96.45
2017-02-19T11:32:48.387Z,96.26
2017-02-19T11:34:01.501Z,95.89
2017-02-19T11:35:14.247Z,95.6
2017-02-19T11:36:27.360Z,95.32
2017-02-19T11:37:40.091Z,94.56
2017-02-19T11:38:52.759Z,93.99
2017-02-19T11:40:05.885Z,94.18
2017-02-19T11:41:17.808Z,94.08
2017-02-19T11:42:30.927Z,93.51
2017-02-19T11:43:43.274Z,94.08
2017-02-19T11:44:56.370Z,93.6
2017-02-19T11:46:09.467Z,93.51
2017-02-19T11:47:21.755Z,93.13
2017-02-19T11:48:34.889Z,93.13
2017-02-19T11:49:47.615Z,93.23
2017-02-19T11:51:00.299Z,93.79
2017-02-19T11:52:12.657Z,94.56
2017-02-19T11:53:25.753Z,94.84
2017-02-19T11:54:38.854Z,94.37
2017-02-19T11:55:51.608Z,93.99
2017-02-19T11:57:04.682Z,93.6
2017-02-19T11:58:17.829Z,93.89
2017-02-19T11:59:30.938Z,93.6
2017-02-19T12:00:44.061Z,93.04
2017-02-19T12:01:57.187Z,92.75
2017-02-19T12:03:10.252Z,93.6
2017-02-19T12:04:22.547Z,92.66
2017-02-19T12:05:35.668Z,92.85
2017-02-19T12:06:48.340Z,92.66
2017-02-19T12:08:01.439Z,92.37
2017-02-19T12:09:14.156Z,92.46
2017-02-19T12:10:27.235Z,93.04
2017-02-19T12:11:40.366Z,93.23
2017-02-19T12:12:53.461Z,92.18
2017-02-19T12:14:06.213Z,93.32
2017-02-19T12:15:19.284Z,92.18
2017-02-19T12:16:32.424Z,92.42
2017-02-19T12:17:45.104Z,93.6
2017-02-19T12:18:58.207Z,94.27
2017-02-19T12:20:10.949Z,93.6
2017-02-19T12:21:24.057Z,93.27
2017-02-19T12:22:37.164Z,93.65
2017-02-19T12:23:50.234Z,93.56
2017-02-19T12:25:03.277Z,93.56
2017-02-19T12:26:15.222Z,93.32
2017-02-19T12:27:28.351Z,93.6
2017-02-19T12:28:41.440Z,93.79
2017-02-19T12:29:54.542Z,92.75
2017-02-19T12:31:07.681Z,92.37
2017-02-19T12:32:20.021Z,93.04
2017-02-19T12:33:33.110Z,92.66
2017-02-19T12:34:46.195Z,92.94
2017-02-19T12:35:59.288Z,93.51
2017-02-19T12:37:12.017Z,93.04
2017-02-19T12:38:25.012Z,92.37
2017-02-19T12:39:37.728Z,92.46
2017-02-19T12:40:50.856Z,92.75
2017-02-19T12:42:03.970Z,91.8
2017-02-19T12:43:17.045Z,91.33
2017-02-19T12:44:30.168Z,91.04
2017-02-19T12:45:43.283Z,91.13
2017-02-19T12:46:56.378Z,91.13
2017-02-19T12:48:09.142Z,91.42
2017-02-19T12:49:22.201Z,91.85
2017-02-19T12:50:35.347Z,91.66
2017-02-19T12:51:48.404Z,91.28
2017-02-19T12:53:01.531Z,91.85
2017-02-19T12:54:14.279Z,91.56
2017-02-19T12:55:27.368Z,91.47
2017-02-19T12:56:40.501Z,90.8
2017-02-19T12:57:53.273Z,90.61
2017-02-19T12:59:06.387Z,90.89
2017-02-19T13:00:19.516Z,89.75
2017-02-19T13:01:32.241Z,90.04
2017-02-19T13:02:44.931Z,90.33
2017-02-19T13:03:58.013Z,90.14
2017-02-19T13:05:10.784Z,89.99
2017-02-19T13:06:23.894Z,89.7
2017-02-19T13:07:37.011Z,89.7
2017-02-19T13:08:49.381Z,88.66
2017-02-19T13:10:02.454Z,88.85
2017-02-19T13:11:15.600Z,88.66
2017-02-19T13:12:28.673Z,88.66
2017-02-19T13:13:41.769Z,88.66
2017-02-19T13:14:54.878Z,88.56
2017-02-19T13:16:07.907Z,88.66
2017-02-19T13:17:20.560Z,87.9
2017-02-19T13:18:33.302Z,88.75
2017-02-19T13:19:46.048Z,88.28
2017-02-19T13:20:59.155Z,88.56
2017-02-19T13:22:11.879Z,88.09
2017-02-19T13:23:24.956Z,88.56
2017-02-19T13:24:38.074Z,88.56
2017-02-19T13:25:51.147Z,88.18
2017-02-19T13:27:04.269Z,88.56
2017-02-19T13:28:17.339Z,88.66
2017-02-19T13:29:30.458Z,88.46
2017-02-19T13:30:42.832Z,88.75
2017-02-19T13:31:55.926Z,89.23
2017-02-19T13:33:09.028Z,89.32
2017-02-19T13:34:21.742Z,88.94
2017-02-19T13:35:34.463Z,89.42
2017-02-19T13:36:47.183Z,88.94
2017-02-19T13:38:00.287Z,89.14
2017-02-19T13:39:12.607Z,89.23
2017-02-19T13:40:24.898Z,88.37
2017-02-19T13:41:38.049Z,88.66
2017-02-19T13:42:51.424Z,89.14
2017-02-19T13:44:04.109Z,89.04
2017-02-19T13:45:16.811Z,89.14
2017-02-19T13:46:29.907Z,89.51
2017-02-19T13:47:43.003Z,89.61
2017-02-19T13:48:55.786Z,89.32
2017-02-19T13:50:08.900Z,89.32
2017-02-19T13:51:21.284Z,89.14
2017-02-19T13:52:34.415Z,89.32
2017-02-19T13:53:47.506Z,89.8
2017-02-19T13:55:00.598Z,89.89
2017-02-19T13:56:13.737Z,89.32
2017-02-19T13:57:26.840Z,89.99
2017-02-19T13:58:39.536Z,89.42
2017-02-19T13:59:52.213Z,90.08
2017-02-19T14:01:05.284Z,89.99
2017-02-19T14:02:17.673Z,89.7
2017-02-19T14:03:30.775Z,89.61
2017-02-19T14:04:43.839Z,89.8
2017-02-19T14:05:56.960Z,89.51
2017-02-19T14:07:10.057Z,89.8
2017-02-19T14:08:23.133Z,89.32
2017-02-19T14:09:36.273Z,89.8
2017-02-19T14:10:49.349Z,89.61
2017-02-19T14:12:02.503Z,90.18
2017-02-19T14:13:15.626Z,89.51
2017-02-19T14:14:28.738Z,89.8
2017-02-19T14:15:42.178Z,89.61
2017-02-19T14:16:54.898Z,89.04
2017-02-19T14:18:07.625Z,89.61
2017-02-19T14:19:19.965Z,89.47
2017-02-19T14:20:33.086Z,90.7
2017-02-19T14:21:45.799Z,90.23
2017-02-19T14:22:58.903Z,89.85
2017-02-19T14:24:12.004Z,90.14
2017-02-19T14:25:24.695Z,90.7
2017-02-19T14:26:37.765Z,90.8
2017-02-19T14:27:50.818Z,90.8
2017-02-19T14:29:03.920Z,90.52
2017-02-19T14:30:17.029Z,90.52
2017-02-19T14:31:30.097Z,90.04
2017-02-19T14:32:42.819Z,90.8
2017-02-19T14:33:55.490Z,90.61
2017-02-19T14:35:08.662Z,90.33
2017-02-19T14:36:21.760Z,89.75
2017-02-19T14:37:34.828Z,90.8
2017-02-19T14:38:47.907Z,90.52
2017-02-19T14:40:01.030Z,90.42
2017-02-19T14:41:13.341Z,90.7
2017-02-19T14:42:26.439Z,89.75
2017-02-19T14:43:39.133Z,90.52
2017-02-19T14:44:51.835Z,90.99
2017-02-19T14:46:04.941Z,91.66
2017-02-19T14:47:17.677Z,92.22
2017-02-19T14:48:30.784Z,91.89
2017-02-19T14:49:43.911Z,91.85
2017-02-19T14:50:56.608Z,91.75
2017-02-19T14:52:09.729Z,91.33
2017-02-19T14:53:22.875Z,92.27
2017-02-19T14:54:35.971Z,92.08
2017-02-19T14:55:48.692Z,92.46
2017-02-19T14:57:01.780Z,92.27
2017-02-19T14:58:14.862Z,92.27
2017-02-19T14:59:28.260Z,91.8
2017-02-19T15:00:41.382Z,92.27
2017-02-19T15:01:54.477Z,93.13
2017-02-19T15:03:07.596Z,93.79
2017-02-19T15:04:20.688Z,94.18
2017-02-19T15:05:33.771Z,95.41
2017-02-19T15:06:46.887Z,95.89
2017-02-19T15:07:59.588Z,96.55
2017-02-19T15:09:12.697Z,96.74
2017-02-19T15:10:25.775Z,97.78
2017-02-19T15:11:38.819Z,98.93
2017-02-19T15:12:51.926Z,99.35
2017-02-19T15:14:05.037Z,99.99
2017-02-19T15:15:18.125Z,99.99
2017-02-19T15:16:31.227Z,99.99
2017-02-19T15:17:43.968Z,99.99
2017-02-19T15:18:57.038Z,99.99
2017-02-19T15:20:10.166Z,99.99
2017-02-19T15:21:23.287Z,99.99
2017-02-19T15:22:36.407Z,99.99
2017-02-19T15:23:49.558Z,99.99
2017-02-19T15:25:02.668Z,99.99
2017-02-19T15:26:15.396Z,99.99
2017-02-19T15:27:28.509Z,99.99
2017-02-19T15:28:41.182Z,99.99
2017-02-19T15:29:53.905Z,99.99
2017-02-19T15:31:06.997Z,99.99
2017-02-19T15:32:19.699Z,99.99
2017-02-19T15:33:32.764Z,99.99
2017-02-19T15:34:45.859Z,99.99
2017-02-19T15:35:58.937Z,99.99
2017-02-19T15:37:12.301Z,99.99
2017-02-19T15:38:25.353Z,99.99
2017-02-19T15:39:38.424Z,99.99
2017-02-19T15:40:51.519Z,99.99